createdAt,value
2019-01-17T00:01:34.039Z,96777.52
2019-01-17T00:04:20.497Z,96772.28
2019-01-17T00:06:57.491Z,96772.06
2019-01-17T00:09:28.629Z,96771.55
2019-01-17T00:12:16.155Z,96768.89
2019-01-17T00:14:47.216Z,96770.66
2019-01-17T00:17:34.371Z,96780.12
2019-01-17T00:20:16.074Z,96785.70
2019-01-17T00:23:05.165Z,96779.34
2019-01-17T00:25:42.114Z,96771.02
2019-01-17T00:28:18.766Z,96771.16
2019-01-17T00:30:55.448Z,96771.28
2019-01-17T00:33:35.211Z,96769.98
2019-01-17T00:36:18.129Z,96768.23
2019-01-17T00:38:49.163Z,96764.30
2019-01-17T00:41:32.214Z,96757.69
2019-01-17T00:44:18.459Z,96752.83
2019-01-17T00:46:49.532Z,96759.75
2019-01-17T00:49:29.468Z,96758.66
2019-01-17T00:52:09.561Z,96764.25
2019-01-17T00:54:56.853Z,96768.60
2019-01-17T00:57:27.916Z,96762.41
2019-01-17T01:00:17.185Z,96770.96
2019-01-17T01:02:48.258Z,96768.05
2019-01-17T01:05:31.272Z,96765.79
2019-01-17T01:08:17.451Z,96773.34
2019-01-17T01:10:51.566Z,96769.74
2019-01-17T01:13:22.637Z,96772.83
2019-01-17T01:16:09.794Z,96768.70
2019-01-17T01:18:52.623Z,96775.19
2019-01-17T01:21:23.657Z,96771.61
2019-01-17T01:23:57.464Z,96774.41
2019-01-17T01:26:43.513Z,96769.59
2019-01-17T01:29:17.396Z,96764.08
2019-01-17T01:31:53.922Z,96765.16
2019-01-17T01:34:37.350Z,96765.91
2019-01-17T01:37:23.166Z,96752.45
2019-01-17T01:40:06.427Z,96758.88
2019-01-17T01:42:55.732Z,96763.25
2019-01-17T01:45:32.708Z,96758.58
2019-01-17T01:48:06.827Z,96754.59
2019-01-17T01:50:43.557Z,96749.13
2019-01-17T01:53:13.026Z,96750.62
2019-01-17T01:55:42.495Z,96745.86
2019-01-17T01:58:11.981Z,96746.84
2019-01-17T02:00:42.870Z,96751.69
2019-01-17T02:03:12.372Z,96741.63
2019-01-17T02:05:41.974Z,96742.27
2019-01-17T02:08:11.543Z,96741.64
2019-01-17T02:10:41.025Z,96745.23
2019-01-17T02:13:10.518Z,96733.13
2019-01-17T02:15:39.997Z,96730.69
2019-01-17T02:18:09.450Z,96732.17
2019-01-17T02:20:38.950Z,96735.38
2019-01-17T02:23:08.408Z,96732.61
2019-01-17T02:25:37.957Z,96730.63
2019-01-17T02:28:07.475Z,96732.67
2019-01-17T02:30:36.929Z,96727.43
2019-01-17T02:33:06.387Z,96734.20
2019-01-17T02:35:35.808Z,96732.83
2019-01-17T02:38:05.269Z,96738.66
2019-01-17T02:40:34.730Z,96729.64
2019-01-17T02:43:04.211Z,96725.83
2019-01-17T02:45:33.686Z,96727.41
2019-01-17T02:48:03.279Z,96725.33
2019-01-17T02:50:32.739Z,96727.52
2019-01-17T02:53:02.221Z,96727.27
2019-01-17T02:55:31.706Z,96718.84
2019-01-17T02:58:01.165Z,96722.28
2019-01-17T03:00:30.628Z,96728.66
2019-01-17T03:03:00.191Z,96723.93
2019-01-17T03:05:29.658Z,96719.55
2019-01-17T03:07:59.141Z,96716.64
2019-01-17T03:10:28.609Z,96717.85
2019-01-17T03:12:58.072Z,96712.16
2019-01-17T03:15:27.575Z,96718.73
2019-01-17T03:17:57.047Z,96722.45
2019-01-17T03:20:38.356Z,96686.66
2019-01-17T03:23:07.818Z,96722.25
2019-01-17T03:25:37.284Z,96720.81
2019-01-17T03:28:06.777Z,96722.05
2019-01-17T03:30:36.269Z,96720.08
2019-01-17T03:33:05.773Z,96707.92
2019-01-17T03:35:35.299Z,96707.83
2019-01-17T03:38:04.767Z,96700.86
2019-01-17T03:40:36.091Z,96700.83
2019-01-17T03:43:05.679Z,96687.06
2019-01-17T03:45:35.140Z,96695.72
2019-01-17T03:48:04.603Z,96695.54
2019-01-17T03:50:34.090Z,96691.24
2019-01-17T03:53:03.561Z,96681.47
2019-01-17T03:55:33.044Z,96687.80
2019-01-17T03:58:02.605Z,96684.63
2019-01-17T04:00:32.078Z,96691.35
2019-01-17T04:03:01.552Z,96690.61
2019-01-17T04:05:31.044Z,96694.08
2019-01-17T04:08:00.516Z,96684.72
2019-01-17T04:10:29.977Z,96684.41
2019-01-17T04:12:59.569Z,96695.00
2019-01-17T04:15:29.025Z,96694.09
2019-01-17T04:17:58.410Z,96692.50
2019-01-17T04:20:27.896Z,96700.86
2019-01-17T04:22:57.306Z,96700.55
2019-01-17T04:25:26.770Z,96700.07
2019-01-17T04:27:56.423Z,96702.50
2019-01-17T04:30:25.873Z,96697.70
2019-01-17T04:32:55.370Z,96695.52
2019-01-17T04:35:24.886Z,96704.69
2019-01-17T04:37:54.365Z,96699.78
2019-01-17T04:40:23.843Z,96703.25
2019-01-17T04:42:53.346Z,96708.89
2019-01-17T04:45:22.838Z,96707.26
2019-01-17T04:47:52.305Z,96719.17
2019-01-17T04:50:21.809Z,96719.48
2019-01-17T04:52:51.283Z,96720.55
2019-01-17T04:55:20.761Z,96723.25
2019-01-17T04:57:50.261Z,96716.08
2019-01-17T05:00:21.034Z,96717.60
2019-01-17T05:02:50.443Z,96716.50
2019-01-17T05:05:19.951Z,96721.63
2019-01-17T05:07:49.420Z,96720.42
2019-01-17T05:10:18.921Z,96721.39
2019-01-17T05:12:48.415Z,96724.03
2019-01-17T05:15:17.883Z,96727.97
2019-01-17T05:17:47.371Z,96726.53
2019-01-17T05:20:17.178Z,96722.70
2019-01-17T05:22:46.650Z,96723.13
2019-01-17T05:25:16.481Z,96721.16
2019-01-17T05:27:45.976Z,96716.89
2019-01-17T05:30:18.413Z,96714.00
2019-01-17T05:32:48.091Z,96716.92
2019-01-17T05:35:17.592Z,96713.63
2019-01-17T05:37:47.027Z,96709.31
2019-01-17T05:40:19.163Z,96699.66
2019-01-17T05:42:48.654Z,96705.83
2019-01-17T05:45:18.218Z,96705.52
2019-01-17T05:47:47.819Z,96707.33
2019-01-17T05:50:18.632Z,96709.97
2019-01-17T05:52:48.103Z,96709.74
2019-01-17T05:55:20.017Z,96709.41
2019-01-17T05:57:48.882Z,96705.59
2019-01-17T06:00:21.829Z,96710.67
2019-01-17T06:02:51.299Z,96708.66
2019-01-17T06:05:20.786Z,96704.94
2019-01-17T06:07:50.250Z,96705.89
2019-01-17T06:10:19.714Z,96705.95
2019-01-17T06:12:49.421Z,96706.09
2019-01-17T06:15:20.460Z,96707.35
2019-01-17T06:17:49.927Z,96709.91
2019-01-17T06:20:19.422Z,96707.94
2019-01-17T06:22:48.938Z,96702.75
2019-01-17T06:25:18.430Z,96704.70
2019-01-17T06:27:47.977Z,96707.98
2019-01-17T06:30:17.442Z,96708.11
2019-01-17T06:32:46.908Z,96704.44
2019-01-17T06:35:16.443Z,96710.73
2019-01-17T06:37:45.922Z,96707.41
2019-01-17T06:40:28.341Z,96711.91
2019-01-17T06:42:57.798Z,96719.45
2019-01-17T06:45:27.268Z,96721.58
2019-01-17T06:47:56.781Z,96727.48
2019-01-17T06:50:26.250Z,96730.78
2019-01-17T06:52:55.764Z,96734.00
2019-01-17T06:55:25.229Z,96740.67
2019-01-17T06:57:54.696Z,96744.02
2019-01-17T07:00:24.223Z,96741.13
2019-01-17T07:02:53.686Z,96740.74
2019-01-17T07:05:23.150Z,96738.86
2019-01-17T07:07:52.697Z,96736.13
2019-01-17T07:10:22.269Z,96738.48
2019-01-17T07:12:51.868Z,96736.38
2019-01-17T07:15:21.374Z,96745.91
2019-01-17T07:17:50.846Z,96743.69
2019-01-17T07:20:20.333Z,96749.81
2019-01-17T07:22:49.829Z,96747.41
2019-01-17T07:25:19.298Z,96750.34
2019-01-17T07:27:48.865Z,96744.95
2019-01-17T07:30:23.999Z,96742.48
2019-01-17T07:32:53.394Z,96750.70
2019-01-17T07:35:22.855Z,96759.34
2019-01-17T07:37:52.345Z,96765.88
2019-01-17T07:40:21.814Z,96757.47
2019-01-17T07:42:51.405Z,96753.59
2019-01-17T07:45:26.984Z,96752.57
2019-01-17T07:47:56.497Z,96757.10
2019-01-17T07:50:26.101Z,96753.63
2019-01-17T07:52:55.668Z,96744.52
2019-01-17T07:55:25.179Z,96752.11
2019-01-17T07:57:54.654Z,96754.98
2019-01-17T08:00:24.810Z,96748.88
2019-01-17T08:02:54.295Z,96748.52
2019-01-17T08:05:23.866Z,96758.12
2019-01-17T08:07:53.343Z,96752.61
2019-01-17T08:10:22.814Z,96756.52
2019-01-17T08:12:52.277Z,96763.84
2019-01-17T08:15:21.741Z,96758.66
2019-01-17T08:17:51.262Z,96769.25
2019-01-17T08:20:23.250Z,96772.52
2019-01-17T08:22:52.819Z,96759.34
2019-01-17T08:25:22.240Z,96762.30
2019-01-17T08:27:51.745Z,96764.02
2019-01-17T08:30:26.835Z,96766.11
2019-01-17T08:32:56.328Z,96765.78
2019-01-17T08:35:25.787Z,96765.66
2019-01-17T08:37:55.254Z,96775.25
2019-01-17T08:40:28.245Z,96782.43
2019-01-17T08:42:57.742Z,96776.86
2019-01-17T08:45:27.209Z,96778.13
2019-01-17T08:47:56.690Z,96781.97
2019-01-17T08:50:26.151Z,96784.84
2019-01-17T08:52:55.609Z,96788.08
2019-01-17T08:55:25.109Z,96786.36
2019-01-17T08:57:54.619Z,96793.44
2019-01-17T09:00:26.573Z,96792.14
2019-01-17T09:02:56.069Z,96795.23
2019-01-17T09:05:25.547Z,96792.16
2019-01-17T09:07:55.016Z,96794.83
2019-01-17T09:10:27.923Z,96801.14
2019-01-17T09:12:57.488Z,96801.11
2019-01-17T09:15:30.465Z,96804.24
2019-01-17T09:17:59.972Z,96809.38
2019-01-17T09:20:29.432Z,96805.02
2019-01-17T09:22:58.911Z,96799.98
2019-01-17T09:25:28.415Z,96805.69
2019-01-17T09:27:57.886Z,96804.41
2019-01-17T09:30:27.455Z,96807.31
2019-01-17T09:32:56.955Z,96806.12
2019-01-17T09:35:26.415Z,96801.70
2019-01-17T09:37:55.813Z,96796.06
2019-01-17T09:40:25.281Z,96802.97
2019-01-17T09:42:54.778Z,96796.70
2019-01-17T09:45:24.268Z,96804.11
2019-01-17T09:47:53.810Z,96792.50
2019-01-17T09:50:25.602Z,96802.03
2019-01-17T09:52:55.055Z,96797.39
2019-01-17T09:55:24.542Z,96800.69
2019-01-17T09:57:54.016Z,96796.64
2019-01-17T10:00:28.902Z,96794.65
2019-01-17T10:02:58.391Z,96792.08
2019-01-17T10:05:27.851Z,96787.25
2019-01-17T10:07:57.238Z,96783.67
2019-01-17T10:10:27.135Z,96790.27
2019-01-17T10:12:56.623Z,96785.69
2019-01-17T10:15:36.650Z,96783.35
2019-01-17T10:18:48.110Z,96786.16
2019-01-17T10:21:27.885Z,96788.36
2019-01-17T10:24:30.489Z,96791.95
2019-01-17T10:27:12.742Z,96780.61
2019-01-17T10:30:04.895Z,96776.34
2019-01-17T10:32:44.890Z,96773.01
2019-01-17T10:35:31.077Z,96765.77
2019-01-17T10:38:13.890Z,96758.30
2019-01-17T10:41:09.002Z,96755.45
2019-01-17T10:43:45.941Z,96752.12
2019-01-17T10:46:34.954Z,96750.20
2019-01-17T10:49:49.951Z,96744.05
2019-01-17T10:52:36.114Z,96736.88
2019-01-17T10:55:32.998Z,96736.67
2019-01-17T10:58:16.125Z,96738.89
2019-01-17T11:01:11.081Z,96735.61
2019-01-17T11:04:10.306Z,96732.98
2019-01-17T11:06:56.514Z,96729.11
2019-01-17T11:09:50.181Z,96728.98
2019-01-17T11:12:43.821Z,96720.42
2019-01-17T11:15:42.222Z,96715.68
2019-01-17T11:18:42.170Z,96710.80
2019-01-17T11:21:39.083Z,96701.34
2019-01-17T11:24:35.872Z,96698.78
2019-01-17T11:27:29.451Z,96690.55
2019-01-17T11:30:24.875Z,96686.72
2019-01-17T11:33:29.292Z,96676.69
2019-01-17T11:36:33.532Z,96674.95
2019-01-17T11:39:31.485Z,96661.07
2019-01-17T11:42:14.436Z,96654.75
2019-01-17T11:45:15.477Z,96654.22
2019-01-17T11:48:04.564Z,96659.69
2019-01-17T11:51:13.754Z,96660.45
2019-01-17T11:54:02.962Z,96661.00
2019-01-17T11:57:00.682Z,96661.67
2019-01-17T11:59:34.859Z,96661.87
2019-01-17T12:02:18.145Z,96650.58
2019-01-17T12:04:46.223Z,96648.89
2019-01-17T12:07:16.513Z,96647.86
2019-01-17T12:09:46.027Z,96645.09
2019-01-17T12:12:17.122Z,96641.83
2019-01-17T12:14:46.731Z,96637.55
2019-01-17T12:17:16.241Z,96631.56
2019-01-17T12:19:45.728Z,96629.80
2019-01-17T12:22:15.206Z,96636.54
2019-01-17T12:24:44.709Z,96622.70
2019-01-17T12:27:14.171Z,96625.64
2019-01-17T12:29:43.656Z,96623.22
2019-01-17T12:32:13.161Z,96617.27
2019-01-17T12:34:42.718Z,96613.67
2019-01-17T12:37:12.251Z,96615.28
2019-01-17T12:39:41.762Z,96617.22
2019-01-17T12:42:11.244Z,96607.11
2019-01-17T12:44:40.717Z,96599.54
2019-01-17T12:47:10.160Z,96602.09
2019-01-17T12:49:39.657Z,96594.97
2019-01-17T12:52:09.047Z,96595.19
2019-01-17T12:54:38.558Z,96593.10
2019-01-17T12:57:08.053Z,96592.48
2019-01-17T12:59:37.524Z,96584.52
2019-01-17T13:02:07.017Z,96586.00
2019-01-17T13:04:36.488Z,96583.92
2019-01-17T13:07:05.970Z,96582.00
2019-01-17T13:09:35.479Z,96578.34
2019-01-17T13:12:04.948Z,96575.95
2019-01-17T13:14:34.421Z,96572.61
2019-01-17T13:17:03.981Z,96572.75
2019-01-17T13:19:33.604Z,96568.28
2019-01-17T13:22:03.178Z,96560.67
2019-01-17T13:24:32.789Z,96565.20
2019-01-17T13:27:02.268Z,96560.16
2019-01-17T13:29:31.740Z,96558.30
2019-01-17T13:32:01.252Z,96562.31
2019-01-17T13:34:30.761Z,96562.50
2019-01-17T13:37:00.260Z,96562.74
2019-01-17T13:39:29.804Z,96553.38
2019-01-17T13:41:59.294Z,96554.19
2019-01-17T13:44:28.864Z,96547.25
2019-01-17T13:46:58.416Z,96546.29
2019-01-17T13:49:27.896Z,96542.31
2019-01-17T13:51:57.373Z,96545.16
2019-01-17T13:54:26.860Z,96544.91
2019-01-17T13:56:56.439Z,96550.69
2019-01-17T13:59:27.113Z,96543.82
2019-01-17T14:01:56.712Z,96540.80
2019-01-17T14:04:26.183Z,96545.31
2019-01-17T14:06:55.651Z,96540.48
2019-01-17T14:09:25.192Z,96541.78
2019-01-17T14:11:54.718Z,96536.95
2019-01-17T14:14:24.217Z,96534.55
2019-01-17T14:16:53.721Z,96540.65
2019-01-17T14:19:23.196Z,96534.13
2019-01-17T14:21:52.686Z,96537.45
2019-01-17T14:24:22.183Z,96536.25
2019-01-17T14:26:51.755Z,96536.67
2019-01-17T14:29:21.230Z,96537.12
2019-01-17T14:31:51.026Z,96537.46
2019-01-17T14:34:20.612Z,96535.33
2019-01-17T14:36:50.079Z,96541.29
2019-01-17T14:39:19.573Z,96538.84
2019-01-17T14:41:49.076Z,96539.17
2019-01-17T14:44:18.559Z,96544.33
2019-01-17T14:46:48.185Z,96532.66
2019-01-17T14:49:17.673Z,96531.16
2019-01-17T14:51:47.266Z,96529.70
2019-01-17T14:54:16.757Z,96527.50
2019-01-17T14:56:46.177Z,96524.96
2019-01-17T14:59:15.642Z,96529.09
2019-01-17T15:01:45.146Z,96538.89
2019-01-17T15:04:14.624Z,96533.09
2019-01-17T15:06:44.225Z,96527.47
2019-01-17T15:09:13.742Z,96527.50
2019-01-17T15:11:43.210Z,96528.66
2019-01-17T15:14:12.746Z,96524.27
2019-01-17T15:16:42.263Z,96526.21
2019-01-17T15:19:11.734Z,96536.05
2019-01-17T15:21:41.213Z,96531.30
2019-01-17T15:24:10.776Z,96516.93
2019-01-17T15:26:40.259Z,96528.77
2019-01-17T15:29:09.728Z,96512.14
2019-01-17T15:31:39.250Z,96515.67
2019-01-17T15:34:08.731Z,96507.89
2019-01-17T15:36:38.207Z,96517.80
2019-01-17T15:39:09.515Z,96518.70
2019-01-17T15:41:38.915Z,96519.55
2019-01-17T15:44:08.421Z,96520.37
2019-01-17T15:46:37.925Z,96522.97
2019-01-17T15:49:07.512Z,96531.98
2019-01-17T15:51:36.975Z,96530.81
2019-01-17T15:54:06.479Z,96530.77
2019-01-17T15:56:35.954Z,96527.35
2019-01-17T15:59:05.434Z,96529.31
2019-01-17T16:01:35.044Z,96526.73
2019-01-17T16:04:04.510Z,96527.61
2019-01-17T16:06:34.081Z,96539.86
2019-01-17T16:09:03.675Z,96538.77
2019-01-17T16:11:33.141Z,96534.06
2019-01-17T16:14:02.629Z,96538.16
2019-01-17T16:16:32.125Z,96536.97
2019-01-17T16:19:01.582Z,96541.32
2019-01-17T16:21:31.048Z,96544.40
2019-01-17T16:24:00.712Z,96542.88
2019-01-17T16:26:30.249Z,96540.91
2019-01-17T16:28:59.763Z,96539.81
2019-01-17T16:31:29.259Z,96530.16
2019-01-17T16:33:58.737Z,96536.27
2019-01-17T16:36:28.224Z,96541.08
2019-01-17T16:38:57.707Z,96545.06
2019-01-17T16:41:27.183Z,96547.48
2019-01-17T16:43:56.658Z,96550.27
2019-01-17T16:46:26.165Z,96548.31
2019-01-17T16:48:55.628Z,96550.09
2019-01-17T16:51:25.101Z,96553.94
2019-01-17T16:53:54.607Z,96552.09
2019-01-17T16:56:24.175Z,96556.94
2019-01-17T16:58:53.640Z,96558.99
2019-01-17T17:01:23.209Z,96556.64
2019-01-17T17:04:13.534Z,96563.28
2019-01-17T17:06:43.037Z,96564.30
2019-01-17T17:09:12.556Z,96569.27
2019-01-17T17:11:42.024Z,96569.11
2019-01-17T17:14:11.539Z,96567.16
2019-01-17T17:16:40.998Z,96568.36
2019-01-17T17:19:10.473Z,96568.82
2019-01-17T17:21:39.981Z,96572.64
2019-01-17T17:24:09.379Z,96571.63
2019-01-17T17:26:38.884Z,96568.23
2019-01-17T17:29:08.347Z,96570.97
2019-01-17T17:31:37.850Z,96570.05
2019-01-17T17:34:07.343Z,96570.77
2019-01-17T17:36:36.904Z,96571.62
2019-01-17T17:39:08.001Z,96574.62
2019-01-17T17:41:37.510Z,96574.80
2019-01-17T17:44:07.041Z,96576.20
2019-01-17T17:46:36.572Z,96573.77
2019-01-17T17:49:06.176Z,96571.35
2019-01-17T17:51:35.756Z,96571.87
2019-01-17T17:54:05.567Z,96565.95
2019-01-17T17:56:35.030Z,96570.47
2019-01-17T17:59:04.701Z,96573.89
2019-01-17T18:01:34.712Z,96573.78
2019-01-17T18:04:04.192Z,96574.03
2019-01-17T18:06:33.625Z,96574.03
2019-01-17T18:09:04.663Z,96572.13
2019-01-17T18:11:34.134Z,96584.64
2019-01-17T18:14:03.593Z,96587.39
2019-01-17T18:16:33.194Z,96590.19
2019-01-17T18:19:02.674Z,96589.02
2019-01-17T18:21:32.166Z,96592.30
2019-01-17T18:24:01.656Z,96590.57
2019-01-17T18:26:31.139Z,96606.23
2019-01-17T18:29:00.610Z,96603.55
2019-01-17T18:31:30.100Z,96607.11
2019-01-17T18:33:59.527Z,96587.52
2019-01-17T18:36:29.304Z,96600.72
2019-01-17T18:38:58.935Z,96600.16
2019-01-17T18:41:28.403Z,96598.67
2019-01-17T18:43:57.883Z,96602.94
2019-01-17T18:46:27.444Z,96598.91
2019-01-17T18:48:56.941Z,96611.39
2019-01-17T18:51:26.436Z,96609.76
2019-01-17T18:53:55.943Z,96603.55
2019-01-17T18:56:25.724Z,96603.98
2019-01-17T18:58:55.186Z,96601.55
2019-01-17T19:01:24.710Z,96610.64
2019-01-17T19:03:54.210Z,96611.06
2019-01-17T19:06:23.815Z,96604.97
2019-01-17T19:08:53.337Z,96615.72
2019-01-17T19:11:22.929Z,96614.59
2019-01-17T19:13:52.426Z,96612.80
2019-01-17T19:16:21.996Z,96622.83
2019-01-17T19:18:51.448Z,96614.81
2019-01-17T19:21:21.006Z,96619.53
2019-01-17T19:23:50.469Z,96621.19
2019-01-17T19:26:19.966Z,96623.06
2019-01-17T19:28:49.429Z,96619.13
2019-01-17T19:31:18.902Z,96631.23
2019-01-17T19:33:48.366Z,96626.68
2019-01-17T19:36:17.866Z,96636.00
2019-01-17T19:38:47.337Z,96633.53
2019-01-17T19:41:16.798Z,96643.00
2019-01-17T19:43:46.256Z,96631.02
2019-01-17T19:46:15.799Z,96622.23
2019-01-17T19:48:45.242Z,96629.97
2019-01-17T19:51:14.709Z,96631.47
2019-01-17T19:53:44.210Z,96629.45
2019-01-17T19:56:13.678Z,96639.91
2019-01-17T19:58:43.146Z,96639.16
2019-01-17T20:01:13.042Z,96636.90
2019-01-17T20:03:42.472Z,96636.48
2019-01-17T20:06:11.950Z,96632.29
2019-01-17T20:08:41.502Z,96630.13
2019-01-17T20:11:10.980Z,96616.91
2019-01-17T20:13:40.444Z,96618.64
2019-01-17T20:16:09.932Z,96624.22
2019-01-17T20:18:39.418Z,96628.20
2019-01-17T20:21:08.889Z,96639.16
2019-01-17T20:23:38.299Z,96636.28
2019-01-17T20:26:07.870Z,96638.01
2019-01-17T20:28:37.332Z,96634.47
2019-01-17T20:31:06.818Z,96629.41
2019-01-17T20:33:36.402Z,96640.53
2019-01-17T20:36:06.232Z,96647.58
2019-01-17T20:38:35.737Z,96646.63
2019-01-17T20:41:05.216Z,96641.59
2019-01-17T20:43:34.670Z,96640.84
2019-01-17T20:46:04.155Z,96646.91
2019-01-17T20:48:33.625Z,96638.80
2019-01-17T20:51:03.089Z,96634.58
2019-01-17T20:53:32.619Z,96639.52
2019-01-17T20:56:02.089Z,96645.28
2019-01-17T20:58:32.957Z,96643.11
2019-01-17T21:01:13.075Z,96638.24
2019-01-17T21:03:42.543Z,96632.73
2019-01-17T21:06:12.008Z,96639.49
2019-01-17T21:08:41.512Z,96648.82
2019-01-17T21:11:10.984Z,96653.97
2019-01-17T21:13:40.447Z,96658.30
2019-01-17T21:16:09.957Z,96658.31
2019-01-17T21:18:39.419Z,96658.67
2019-01-17T21:21:08.920Z,96662.02
2019-01-17T21:23:38.401Z,96662.05
2019-01-17T21:26:07.874Z,96664.83
2019-01-17T21:28:37.374Z,96662.97
2019-01-17T21:31:06.840Z,96668.45
2019-01-17T21:33:36.334Z,96668.86
2019-01-17T21:36:05.838Z,96666.87
2019-01-17T21:38:35.269Z,96663.94
2019-01-17T21:41:04.765Z,96673.22
2019-01-17T21:43:34.224Z,96680.00
2019-01-17T21:46:03.726Z,96680.17
2019-01-17T21:48:33.211Z,96682.28
2019-01-17T21:51:02.671Z,96683.37
2019-01-17T21:53:32.133Z,96686.16
2019-01-17T21:56:01.637Z,96694.83
2019-01-17T21:58:31.096Z,96692.45
2019-01-17T22:01:00.624Z,96697.41
2019-01-17T22:03:30.084Z,96697.41
2019-01-17T22:05:59.555Z,96702.15
2019-01-17T22:08:29.050Z,96709.73
2019-01-17T22:10:58.528Z,96720.45
2019-01-17T22:13:28.000Z,96724.20
2019-01-17T22:15:57.467Z,96726.73
2019-01-17T22:18:26.957Z,96729.59
2019-01-17T22:20:56.417Z,96733.58
2019-01-17T22:23:25.890Z,96736.46
2019-01-17T22:25:55.376Z,96742.15
2019-01-17T22:28:24.845Z,96743.73
2019-01-17T22:30:54.318Z,96741.61
2019-01-17T22:33:23.818Z,96747.59
2019-01-17T22:35:53.283Z,96757.34
2019-01-17T22:38:22.764Z,96753.82
2019-01-17T22:40:52.645Z,96754.44
2019-01-17T22:43:22.114Z,96757.33
2019-01-17T22:45:51.507Z,96765.75
2019-01-17T22:48:21.000Z,96772.62
2019-01-17T22:50:50.508Z,96782.20
2019-01-17T22:53:19.988Z,96771.57
2019-01-17T22:55:49.509Z,96777.48
2019-01-17T22:58:18.903Z,96775.95
2019-01-17T23:00:54.631Z,96777.23
2019-01-17T23:03:31.561Z,96770.91
2019-01-17T23:06:01.090Z,96763.73
2019-01-17T23:08:30.513Z,96760.94
2019-01-17T23:10:59.909Z,96759.72
2019-01-17T23:13:29.408Z,96760.95
2019-01-17T23:15:58.869Z,96759.41
2019-01-17T23:18:28.328Z,96758.34
2019-01-17T23:20:57.818Z,96755.75
2019-01-17T23:23:27.289Z,96746.27
2019-01-17T23:25:56.957Z,96736.70
2019-01-17T23:28:26.451Z,96735.81
2019-01-17T23:30:55.911Z,96743.62
2019-01-17T23:33:25.367Z,96740.46
2019-01-17T23:35:54.905Z,96742.78
2019-01-17T23:38:24.363Z,96746.00
2019-01-17T23:40:53.927Z,96743.37
2019-01-17T23:43:23.427Z,96739.73
2019-01-17T23:45:52.884Z,96730.36
2019-01-17T23:48:22.341Z,96726.66
2019-01-17T23:50:51.846Z,96718.47
2019-01-17T23:53:21.314Z,96730.55
2019-01-17T23:55:50.778Z,96735.38
2019-01-17T23:58:20.193Z,96735.61
